createdAt,value
2017-08-28T20:39:33.908Z,8.40
2017-08-28T20:42:03.672Z,6.17
2017-08-28T20:44:33.533Z,12.43
2017-08-28T20:49:33.412Z,12.47
2017-08-28T20:52:03.336Z,12.70
2017-08-28T20:54:33.455Z,23.80
2017-08-28T20:57:03.231Z,27.93
2017-08-28T20:59:33.345Z,43.17
2017-08-28T21:02:03.010Z,35.13
2017-08-28T21:04:33.238Z,27.13
2017-08-28T21:07:02.970Z,26.00
2017-08-28T21:09:32.901Z,22.80
2017-08-28T21:12:03.046Z,16.93
2017-08-28T21:14:33.550Z,23.27
2017-08-28T21:17:03.555Z,25.40
2017-08-28T21:19:33.441Z,24.50
2017-08-28T21:22:03.329Z,27.67
2017-08-28T21:24:33.842Z,20.40
2017-08-28T21:27:03.776Z,26.73
2017-08-28T21:29:33.694Z,18.10
2017-08-28T21:32:03.357Z,17.03
2017-08-28T21:34:33.629Z,20.37
2017-08-28T21:37:03.290Z,14.50
2017-08-28T21:39:33.093Z,12.77
2017-08-28T21:42:02.716Z,12.90
2017-08-28T21:44:32.264Z,17.47
2017-08-28T21:47:02.018Z,11.07
2017-08-28T21:49:31.676Z,11.60
2017-08-28T21:52:01.608Z,9.80
2017-08-28T21:54:31.222Z,11.97
2017-08-28T21:57:00.821Z,22.23
2017-08-28T21:59:30.333Z,12.80
2017-08-28T22:01:59.882Z,13.97
2017-08-28T22:04:30.233Z,13.73
2017-08-28T22:06:59.898Z,14.73
2017-08-28T22:09:29.733Z,11.60
2017-08-28T22:11:59.546Z,12.63
2017-08-28T22:14:30.434Z,12.37
2017-08-28T22:17:00.464Z,10.70
2017-08-28T22:19:30.650Z,11.00
2017-08-28T22:22:00.640Z,12.50
2017-08-28T22:24:30.572Z,14.57
2017-08-28T22:27:00.303Z,15.03
2017-08-28T22:29:31.010Z,12.43
2017-08-28T22:32:01.062Z,9.20
2017-08-28T22:34:31.002Z,12.03
2017-08-28T22:37:00.784Z,12.40
2017-08-28T22:39:30.350Z,10.43
2017-08-28T22:41:59.913Z,11.20
2017-08-28T22:44:29.959Z,10.23
2017-08-28T22:46:59.784Z,9.37
2017-08-28T22:49:29.509Z,11.27
2017-08-28T22:51:59.037Z,9.50
2017-08-28T22:54:28.753Z,16.17
2017-08-28T22:56:58.676Z,12.53
2017-08-28T22:59:28.573Z,11.20
2017-08-28T23:01:58.259Z,8.63
2017-08-28T23:04:28.095Z,8.60
2017-08-28T23:06:57.854Z,7.97
2017-08-28T23:09:28.109Z,11.53
2017-08-28T23:11:58.138Z,15.10
2017-08-28T23:14:27.668Z,7.60
2017-08-28T23:16:57.224Z,9.07
2017-08-28T23:19:26.836Z,10.80
2017-08-28T23:21:56.542Z,15.30
2017-08-28T23:24:26.445Z,8.83
2017-08-28T23:26:56.567Z,9.90
2017-08-28T23:29:26.125Z,10.90
2017-08-28T23:31:55.676Z,10.07
2017-08-28T23:34:25.198Z,7.40
2017-08-28T23:36:54.995Z,8.07
2017-08-28T23:39:24.542Z,8.30
2017-08-28T23:41:54.412Z,9.70
2017-08-28T23:44:24.432Z,9.53
2017-08-28T23:46:54.188Z,9.63
2017-08-28T23:49:23.687Z,9.03
2017-08-28T23:51:53.253Z,12.60
2017-08-28T23:54:23.041Z,8.03
2017-08-28T23:56:52.685Z,10.23
2017-08-28T23:59:22.486Z,10.10
